Time;durP1;ratioP1;P1;durP2;ratioP2;P2;SDS_P1;SDS_P2;PMS_P1;PMS_P2;Temp;Humidity;BMP_temperature;BMP_pressure;BME280_temperature;BME280_humidity;BME280_pressure;Samples;Min_cycle;Max_cycle;Signal;HPM_P1;HPM_P2
2023/04/26 00:01:48;;;;;;;4.73;2.60;;;12.30;85.80;;;;;;4998911;28;20472;-85
2023/04/26 00:04:14;;;;;;;3.80;2.20;;;12.20;85.70;;;;;;5015855;28;20439;-85
2023/04/26 00:06:40;;;;;;;3.63;2.50;;;12.20;85.60;;;;;;5015748;28;20429;-86
2023/04/26 00:09:09;;;;;;;4.20;2.60;;;12.20;85.70;;;;;;4993404;28;20209;-85
2023/04/26 00:11:37;;;;;;;6.23;2.87;;;12.20;85.60;;;;;;4991585;28;20798;-85
2023/04/26 00:14:03;;;;;;;2.30;2.10;;;12.20;85.60;;;;;;5031883;28;20527;-85
2023/04/26 00:16:29;;;;;;;5.17;3.40;;;12.20;85.60;;;;;;5016002;28;20700;-85
2023/04/26 00:18:55;;;;;;;4.17;2.13;;;12.10;85.40;;;;;;4991068;28;20503;-85
2023/04/26 00:21:24;;;;;;;4.03;2.20;;;12.10;85.30;;;;;;4996475;28;20441;-85
2023/04/26 00:23:52;;;;;;;3.80;2.50;;;12.10;85.30;;;;;;4996489;28;20430;-86
2023/04/26 00:26:20;;;;;;;4.20;2.63;;;12.10;85.20;;;;;;4963932;28;20733;-85
2023/04/26 00:28:46;;;;;;;6.80;3.00;;;12.10;85.20;;;;;;4995654;28;20464;-85
2023/04/26 00:31:16;;;;;;;4.23;2.37;;;12.10;85.20;;;;;;4992413;28;20465;-86
2023/04/26 00:33:46;;;;;;;4.10;2.40;;;12.00;85.10;;;;;;4999338;28;20517;-86
2023/04/26 00:36:18;;;;;;;3.27;2.20;;;12.00;85.00;;;;;;5001781;28;20976;-86
2023/04/26 00:38:49;;;;;;;2.10;1.70;;;12.00;85.00;;;;;;4963794;28;20436;-86
2023/04/26 00:41:15;;;;;;;3.50;2.00;;;12.00;85.00;;;;;;4992111;28;20534;-86
2023/04/26 00:43:44;;;;;;;3.57;2.30;;;12.00;85.00;;;;;;4981805;28;20495;-85
2023/04/26 00:46:10;;;;;;;7.70;2.30;;;12.00;84.90;;;;;;4995354;28;20439;-86
2023/04/26 00:48:38;;;;;;;3.43;2.27;;;12.00;84.90;;;;;;4996051;28;20475;-85
2023/04/26 00:51:08;;;;;;;3.97;2.33;;;11.90;84.80;;;;;;4996333;28;20495;-85
2023/04/26 00:53:38;;;;;;;3.00;2.30;;;11.90;84.70;;;;;;4994917;28;20766;-85
2023/04/26 00:56:09;;;;;;;4.40;2.50;;;11.90;84.70;;;;;;4971615;28;20436;-85
2023/04/26 00:58:36;;;;;;;4.17;2.40;;;11.90;84.70;;;;;;4959687;28;20419;-86
2023/04/26 01:01:06;;;;;;;6.17;2.40;;;11.80;84.50;;;;;;4959800;28;20451;-86
2023/04/26 01:03:37;;;;;;;5.93;2.30;;;11.90;84.60;;;;;;5020031;28;20915;-86
2023/04/26 01:06:05;;;;;;;4.70;2.20;;;11.80;84.40;;;;;;4998208;28;20490;-84
2023/04/26 01:08:36;;;;;;;3.90;2.03;;;11.80;84.50;;;;;;4989815;28;20468;-85
2023/04/26 01:11:03;;;;;;;4.13;2.40;;;11.80;84.50;;;;;;4978855;28;20477;-85
2023/04/26 01:13:31;;;;;;;5.00;2.50;;;11.80;84.50;;;;;;4994858;28;20403;-85
2023/04/26 01:15:58;;;;;;;5.47;2.47;;;11.80;84.50;;;;;;4963041;28;20432;-85
2023/04/26 01:18:24;;;;;;;3.13;2.00;;;11.80;84.30;;;;;;4985580;28;20528;-86
2023/04/26 01:20:52;;;;;;;4.40;2.33;;;11.80;84.30;;;;;;4998111;28;20435;-86
2023/04/26 01:23:23;;;;;;;3.53;2.30;;;11.70;84.10;;;;;;5014340;28;20441;-85
2023/04/26 01:25:55;;;;;;;2.87;2.40;;;11.70;84.10;;;;;;4998277;28;20432;-85
2023/04/26 01:28:23;;;;;;;3.03;2.00;;;11.70;84.00;;;;;;5015183;28;20476;-85
2023/04/26 01:30:49;;;;;;;3.27;2.17;;;11.70;84.00;;;;;;5014939;28;20437;-86
2023/04/26 01:33:15;;;;;;;4.63;2.50;;;11.70;84.00;;;;;;5014414;28;20545;-84
2023/04/26 01:35:47;;;;;;;2.67;2.13;;;11.70;84.10;;;;;;5006842;28;20455;-86
2023/04/26 01:38:16;;;;;;;3.87;2.20;;;11.60;83.90;;;;;;4994873;28;20464;-86
2023/04/26 01:40:44;;;;;;;5.73;2.33;;;11.60;83.80;;;;;;4978988;28;20466;-85
2023/04/26 01:43:11;;;;;;;3.83;2.20;;;11.60;83.80;;;;;;4994656;28;20429;-85
2023/04/26 01:45:47;;;;;;;3.70;2.20;;;11.60;83.90;;;;;;5027089;28;20483;-85
2023/04/26 01:48:41;;;;;;;4.60;2.10;;;11.60;83.90;;;;;;5013010;28;20460;-85
2023/04/26 01:51:07;;;;;;;3.20;2.47;;;11.60;83.90;;;;;;5014311;28;20441;-85
2023/04/26 01:53:33;;;;;;;4.73;2.70;;;11.60;83.80;;;;;;5014186;28;20170;-85
2023/04/26 01:56:05;;;;;;;4.53;2.53;;;11.50;83.70;;;;;;4962480;28;20209;-85
2023/04/26 01:58:35;;;;;;;3.47;2.20;;;11.50;83.60;;;;;;5010482;28;20475;-85
2023/04/26 02:01:10;;;;;;;5.10;2.20;;;11.50;83.60;;;;;;4997883;28;20435;-85
2023/04/26 02:03:36;;;;;;;3.43;2.60;;;11.50;83.70;;;;;;4997134;28;20767;-85
2023/04/26 02:06:02;;;;;;;5.17;2.33;;;11.50;83.80;;;;;;4958912;28;20512;-85
2023/04/26 02:08:28;;;;;;;4.80;2.70;;;11.40;83.70;;;;;;4974777;28;20472;-85
2023/04/26 02:10:57;;;;;;;4.50;2.13;;;11.50;83.90;;;;;;4991354;28;20828;-85
2023/04/26 02:13:28;;;;;;;2.93;2.20;;;11.50;84.00;;;;;;4981187;28;20425;-86
2023/04/26 02:15:56;;;;;;;4.53;2.50;;;11.40;84.70;;;;;;5013571;28;20989;-85
2023/04/26 02:18:25;;;;;;;5.70;2.63;;;11.40;84.00;;;;;;5013756;28;20438;-85
2023/04/26 02:20:56;;;;;;;4.20;2.80;;;11.40;84.00;;;;;;5002002;28;20455;-85
2023/04/26 02:23:23;;;;;;;3.50;2.50;;;11.40;84.10;;;;;;5007416;28;20414;-85
2023/04/26 02:25:53;;;;;;;6.33;2.60;;;11.30;84.00;;;;;;4960636;28;20497;-85
2023/04/26 02:28:22;;;;;;;5.93;2.90;;;11.40;84.10;;;;;;4947098;28;20520;-85
2023/04/26 02:30:48;;;;;;;4.33;2.23;;;11.30;84.00;;;;;;5010777;28;20504;-85
2023/04/26 02:33:14;;;;;;;4.03;2.20;;;11.30;84.00;;;;;;4978507;28;20453;-85
2023/04/26 02:35:47;;;;;;;4.07;2.50;;;11.30;84.00;;;;;;4978045;28;20867;-86
2023/04/26 02:38:13;;;;;;;3.77;2.47;;;11.30;83.90;;;;;;4994250;28;20454;-86
2023/04/26 02:40:42;;;;;;;3.27;2.47;;;11.20;83.70;;;;;;4978433;28;20832;-85
2023/04/26 02:43:11;;;;;;;3.40;2.50;;;11.20;83.80;;;;;;4978415;28;20424;-84
2023/04/26 02:45:46;;;;;;;3.20;2.80;;;11.20;83.80;;;;;;5005642;28;20452;-85
2023/04/26 02:48:18;;;;;;;5.50;2.00;;;11.20;83.80;;;;;;4997516;28;20453;-84
2023/04/26 02:50:46;;;;;;;3.47;1.90;;;11.20;83.80;;;;;;4981241;28;20449;-85
2023/04/26 02:53:16;;;;;;;4.70;2.17;;;11.20;83.90;;;;;;4997145;28;20761;-85
2023/04/26 02:55:45;;;;;;;5.50;2.40;;;11.20;84.00;;;;;;4997163;28;20437;-85
2023/04/26 02:58:11;;;;;;;3.80;2.17;;;11.10;84.00;;;;;;4981181;28;20451;-85
2023/04/26 03:00:39;;;;;;;2.33;2.10;;;11.10;84.00;;;;;;4981337;28;20426;-84
2023/04/26 03:03:08;;;;;;;3.90;2.03;;;11.10;84.00;;;;;;4980986;28;20514;-85
2023/04/26 03:05:34;;;;;;;3.00;2.43;;;11.10;84.00;;;;;;4981265;28;21091;-85
2023/04/26 03:08:05;;;;;;;3.30;2.37;;;11.10;83.90;;;;;;5013448;28;20223;-85
2023/04/26 03:10:33;;;;;;;2.90;2.37;;;11.10;83.80;;;;;;5016955;28;20431;-85
2023/04/26 03:13:04;;;;;;;2.67;2.03;;;11.10;83.80;;;;;;5000835;28;20529;-86
2023/04/26 03:15:32;;;;;;;5.37;2.10;;;11.00;83.60;;;;;;4945526;28;20752;-85
2023/04/26 03:18:03;;;;;;;3.23;2.90;;;11.00;83.60;;;;;;4945811;28;20947;-85
2023/04/26 03:20:29;;;;;;;2.83;2.33;;;11.00;83.70;;;;;;4993686;28;20407;-85
2023/04/26 03:22:57;;;;;;;3.40;2.30;;;11.00;83.60;;;;;;4993949;28;20425;-85
2023/04/26 03:25:26;;;;;;;2.93;2.20;;;11.00;83.70;;;;;;4977458;28;20464;-85
2023/04/26 03:27:55;;;;;;;3.70;2.03;;;11.00;83.70;;;;;;4977241;28;20428;-85
2023/04/26 03:30:30;;;;;;;2.57;2.03;;;11.00;83.60;;;;;;4993444;28;20443;-86
2023/04/26 03:32:58;;;;;;;4.00;3.30;;;10.90;83.50;;;;;;4977708;28;20421;-86
2023/04/26 03:35:25;;;;;;;3.77;2.30;;;10.90;83.50;;;;;;4983430;28;20536;-86
2023/04/26 03:37:58;;;;;;;2.60;2.17;;;10.90;83.50;;;;;;5015532;28;20416;-86
2023/04/26 03:40:24;;;;;;;2.53;1.93;;;10.90;83.60;;;;;;5000122;28;20425;-85
2023/04/26 03:42:57;;;;;;;2.97;2.17;;;10.90;83.60;;;;;;5015945;28;20816;-86
2023/04/26 03:45:27;;;;;;;2.77;2.23;;;10.90;83.70;;;;;;5000395;28;20409;-86
2023/04/26 03:47:53;;;;;;;3.70;1.87;;;10.90;83.70;;;;;;4999813;28;20890;-85
2023/04/26 03:50:20;;;;;;;4.10;2.33;;;10.80;83.60;;;;;;5002997;28;20506;-86
2023/04/26 03:52:54;;;;;;;3.13;1.97;;;10.80;83.60;;;;;;4976508;28;20428;-84
2023/04/26 03:55:22;;;;;;;2.80;1.97;;;10.80;83.70;;;;;;4996388;28;20827;-85
2023/04/26 03:57:54;;;;;;;2.13;1.83;;;10.80;83.80;;;;;;4980266;28;20427;-86
2023/04/26 04:00:24;;;;;;;3.20;2.33;;;10.80;83.70;;;;;;4990229;28;20465;-86
2023/04/26 04:02:57;;;;;;;2.30;2.10;;;10.80;83.70;;;;;;4999384;28;20460;-85
2023/04/26 04:05:30;;;;;;;4.13;1.80;;;10.70;83.70;;;;;;4999887;28;20506;-84
2023/04/26 04:08:00;;;;;;;3.00;2.20;;;10.70;83.70;;;;;;4983461;28;20422;-86
2023/04/26 04:10:28;;;;;;;3.80;2.30;;;10.70;83.70;;;;;;5015351;28;20751;-86
2023/04/26 04:12:55;;;;;;;3.10;2.00;;;10.70;83.70;;;;;;5002927;28;20445;-86
2023/04/26 04:15:21;;;;;;;5.33;2.70;;;10.70;83.70;;;;;;5002748;28;20548;-85
2023/04/26 04:17:50;;;;;;;2.10;1.77;;;10.70;83.70;;;;;;4999120;28;20898;-86
2023/04/26 04:20:19;;;;;;;3.73;1.93;;;10.60;83.50;;;;;;4984538;28;20457;-85
2023/04/26 04:22:46;;;;;;;4.07;2.03;;;10.60;83.60;;;;;;4995575;28;20530;-85
2023/04/26 04:25:12;;;;;;;4.03;2.20;;;10.60;83.60;;;;;;4979699;28;20788;-85
2023/04/26 04:27:44;;;;;;;3.47;2.83;;;10.60;83.60;;;;;;4979698;28;20430;-84
2023/04/26 04:30:33;;;;;;;3.00;2.47;;;10.60;83.60;;;;;;4980844;28;20425;-86
2023/04/26 04:33:03;;;;;;;3.73;2.00;;;10.60;83.70;;;;;;4964044;28;20735;-85
2023/04/26 04:35:37;;;;;;;4.93;2.30;;;10.50;83.60;;;;;;5011940;28;20498;-85
2023/04/26 04:38:07;;;;;;;9.53;2.60;;;10.50;83.60;;;;;;4979595;28;20421;-85
2023/04/26 04:40:38;;;;;;;2.50;2.00;;;10.50;83.60;;;;;;4964008;28;20801;-85
2023/04/26 04:43:04;;;;;;;3.20;2.10;;;10.50;83.60;;;;;;4963072;28;20438;-85
2023/04/26 04:45:34;;;;;;;3.27;2.50;;;10.50;83.60;;;;;;4995292;28;20485;-85
2023/04/26 04:48:05;;;;;;;5.03;2.00;;;10.50;83.60;;;;;;4978752;28;20430;-85
2023/04/26 04:50:31;;;;;;;3.87;2.40;;;10.50;83.60;;;;;;4963306;28;20437;-85
2023/04/26 04:53:02;;;;;;;5.97;3.20;;;10.50;83.70;;;;;;4995444;28;20435;-85
2023/04/26 04:55:31;;;;;;;4.20;2.57;;;10.40;83.50;;;;;;4965477;28;20201;-85
2023/04/26 04:58:00;;;;;;;3.33;2.60;;;10.40;83.60;;;;;;5004724;28;20463;-84
2023/04/26 05:00:29;;;;;;;5.50;2.33;;;10.40;83.60;;;;;;4975324;28;20431;-85
2023/04/26 05:03:14;;;;;;;3.10;2.60;;;10.40;83.60;;;;;;4973549;28;20458;-84
2023/04/26 05:05:42;;;;;;;3.10;2.57;;;10.40;83.60;;;;;;5008401;28;20442;-85
2023/04/26 05:08:10;;;;;;;2.70;2.30;;;10.40;83.60;;;;;;4975251;28;20940;-85
2023/04/26 05:10:38;;;;;;;4.00;2.30;;;10.40;83.60;;;;;;4991726;28;20436;-84
2023/04/26 05:13:05;;;;;;;3.40;2.50;;;10.40;83.70;;;;;;4975773;28;20746;-85
2023/04/26 05:15:35;;;;;;;4.50;2.70;;;10.40;83.80;;;;;;4968366;28;20450;-84
2023/04/26 05:18:01;;;;;;;3.80;2.67;;;10.30;83.70;;;;;;4991543;28;20433;-84
2023/04/26 05:20:28;;;;;;;3.13;2.80;;;10.30;83.70;;;;;;4981786;28;20770;-85
2023/04/26 05:22:56;;;;;;;3.47;2.97;;;10.30;83.70;;;;;;4998056;28;20761;-84
2023/04/26 05:25:27;;;;;;;3.80;2.80;;;10.30;83.80;;;;;;4998422;28;20407;-85
2023/04/26 05:27:58;;;;;;;5.50;3.30;;;10.30;83.90;;;;;;5030422;28;20444;-84
2023/04/26 05:30:35;;;;;;;3.27;2.70;;;10.30;84.00;;;;;;4999507;28;20402;-84
2023/04/26 05:33:24;;;;;;;4.90;2.80;;;10.30;84.10;;;;;;5000790;28;20931;-84
2023/04/26 05:36:13;;;;;;;3.00;2.70;;;10.30;84.10;;;;;;5014451;28;20865;-84
2023/04/26 05:38:41;;;;;;;4.53;2.60;;;10.30;84.30;;;;;;5014351;28;20466;-84
2023/04/26 05:41:07;;;;;;;6.00;2.80;;;10.20;84.30;;;;;;4997907;28;20729;-84
2023/04/26 05:43:35;;;;;;;8.40;2.60;;;10.20;84.30;;;;;;5014141;28;20440;-84
2023/04/26 05:46:01;;;;;;;3.97;3.10;;;10.20;84.40;;;;;;4997670;28;20446;-85
2023/04/26 05:48:30;;;;;;;3.20;2.40;;;10.20;84.50;;;;;;4965566;28;20963;-84
2023/04/26 05:50:56;;;;;;;3.00;2.37;;;10.20;84.60;;;;;;4978411;28;20453;-84
2023/04/26 05:53:22;;;;;;;5.97;3.20;;;10.20;84.70;;;;;;4994646;28;20514;-84
2023/04/26 05:55:50;;;;;;;5.63;3.53;;;10.20;84.90;;;;;;4978355;28;20428;-84
2023/04/26 05:58:16;;;;;;;5.00;3.50;;;10.20;85.00;;;;;;4978704;28;20762;-84
2023/04/26 06:00:48;;;;;;;4.50;3.50;;;10.20;85.10;;;;;;5012252;28;20410;-84
2023/04/26 06:03:14;;;;;;;5.50;3.20;;;10.20;85.30;;;;;;4982334;28;20440;-84
2023/04/26 06:05:41;;;;;;;9.70;3.70;;;10.20;85.40;;;;;;4966091;28;20463;-84
2023/04/26 06:08:10;;;;;;;6.17;3.13;;;10.20;85.50;;;;;;4998285;28;20469;-85
2023/04/26 06:10:38;;;;;;;5.87;4.07;;;10.20;85.70;;;;;;4966013;28;20430;-84
2023/04/26 06:13:06;;;;;;;6.03;3.80;;;10.20;85.90;;;;;;4982237;28;20471;-85
2023/04/26 06:15:41;;;;;;;5.27;3.40;;;10.20;86.00;;;;;;4982525;28;20418;-84
2023/04/26 06:18:09;;;;;;;6.13;3.70;;;10.20;86.10;;;;;;4965589;28;20476;-84
2023/04/26 06:20:37;;;;;;;8.67;4.03;;;10.20;86.30;;;;;;4981984;28;20441;-85
2023/04/26 06:23:11;;;;;;;8.33;5.07;;;10.20;86.50;;;;;;5013844;28;20418;-84
2023/04/26 06:25:44;;;;;;;4.40;3.63;;;10.20;86.60;;;;;;4981946;28;20417;-84
2023/04/26 06:28:12;;;;;;;6.20;4.53;;;10.20;86.70;;;;;;4966344;28;20473;-85
2023/04/26 06:30:41;;;;;;;8.73;4.80;;;10.20;86.80;;;;;;4997876;28;20452;-84
2023/04/26 06:33:14;;;;;;;5.00;4.50;;;10.20;86.90;;;;;;4998145;28;20426;-85
2023/04/26 06:35:45;;;;;;;6.80;4.93;;;10.20;87.00;;;;;;4997555;28;20440;-83
2023/04/26 06:38:13;;;;;;;6.43;4.90;;;10.20;87.10;;;;;;4981835;28;20415;-84
2023/04/26 06:40:42;;;;;;;7.93;4.90;;;10.20;87.20;;;;;;4997740;28;20429;-84
2023/04/26 06:43:08;;;;;;;7.73;5.97;;;10.20;87.30;;;;;;4997721;28;20512;-84
2023/04/26 06:45:50;;;;;;;8.13;5.80;;;10.20;87.30;;;;;;5013913;28;20407;-83
2023/04/26 06:48:21;;;;;;;10.03;5.80;;;10.20;87.50;;;;;;4981396;28;20492;-84
2023/04/26 06:50:49;;;;;;;13.03;5.77;;;10.30;87.60;;;;;;4981369;28;20520;-84
2023/04/26 06:53:20;;;;;;;8.70;5.40;;;10.30;87.70;;;;;;4981636;28;20408;-83
2023/04/26 06:55:48;;;;;;;11.50;6.20;;;10.30;87.70;;;;;;4997534;28;20445;-83
2023/04/26 06:58:20;;;;;;;8.77;5.70;;;10.30;87.70;;;;;;4981897;28;20428;-83
2023/04/26 07:00:48;;;;;;;11.87;6.37;;;10.30;87.70;;;;;;4996964;28;20453;-84
2023/04/26 07:03:14;;;;;;;9.80;6.07;;;10.30;87.80;;;;;;4965456;28;20429;-84
2023/04/26 07:05:42;;;;;;;10.13;6.30;;;10.30;87.90;;;;;;4981279;28;20518;-83
2023/04/26 07:08:10;;;;;;;10.83;6.30;;;10.30;87.90;;;;;;4997091;28;20537;-83
2023/04/26 07:10:39;;;;;;;8.03;5.70;;;10.30;88.00;;;;;;4997285;28;20496;-84
2023/04/26 07:13:05;;;;;;;7.60;5.70;;;10.30;88.10;;;;;;4996742;28;20439;-84
2023/04/26 07:15:32;;;;;;;9.70;5.60;;;10.30;88.10;;;;;;5013310;28;20490;-84
2023/04/26 07:18:02;;;;;;;7.33;5.23;;;10.30;88.10;;;;;;4965061;28;20414;-84
2023/04/26 07:20:30;;;;;;;7.50;5.40;;;10.30;88.20;;;;;;4996984;28;20867;-83
2023/04/26 07:22:58;;;;;;;9.13;6.40;;;10.30;88.20;;;;;;5013571;28;20738;-83
2023/04/26 07:25:29;;;;;;;7.27;5.73;;;10.30;88.30;;;;;;4996687;28;20937;-84
2023/04/26 07:28:02;;;;;;;9.77;6.10;;;10.30;88.20;;;;;;4981255;28;20461;-84
2023/04/26 07:30:28;;;;;;;9.10;6.30;;;10.30;88.30;;;;;;4996926;28;20470;-84
2023/04/26 07:32:54;;;;;;;7.60;5.80;;;10.40;88.40;;;;;;4996687;28;20484;-83
2023/04/26 07:35:20;;;;;;;10.93;6.00;;;10.40;88.40;;;;;;4980216;28;20465;-84
2023/04/26 07:37:46;;;;;;;12.23;5.73;;;10.40;88.40;;;;;;4964855;28;20437;-83
2023/04/26 07:40:17;;;;;;;7.57;5.00;;;10.40;88.40;;;;;;4996606;28;20434;-84
2023/04/26 07:42:46;;;;;;;9.20;5.90;;;10.40;88.50;;;;;;5012416;28;20413;-84
2023/04/26 07:45:17;;;;;;;8.40;5.43;;;10.40;88.50;;;;;;4996565;28;20467;-84
2023/04/26 07:47:47;;;;;;;16.17;5.93;;;10.40;88.50;;;;;;4980941;28;20411;-83
2023/04/26 07:50:18;;;;;;;8.33;5.20;;;10.40;88.60;;;;;;5012179;28;20441;-83
2023/04/26 07:52:48;;;;;;;9.30;5.60;;;10.40;88.60;;;;;;4996582;28;20434;-84
2023/04/26 07:55:19;;;;;;;8.10;4.90;;;10.40;88.60;;;;;;4997146;28;20488;-84
2023/04/26 07:57:47;;;;;;;7.33;4.60;;;10.50;88.70;;;;;;4980495;28;20770;-84
2023/04/26 08:00:17;;;;;;;11.10;5.27;;;10.40;88.60;;;;;;4996458;28;20567;-84
2023/04/26 08:02:49;;;;;;;6.77;5.00;;;10.50;88.70;;;;;;4996367;28;20888;-84
2023/04/26 08:05:15;;;;;;;8.70;5.33;;;10.50;88.60;;;;;;4980252;28;20422;-83
2023/04/26 08:07:42;;;;;;;7.70;5.70;;;10.50;88.60;;;;;;4979947;28;20428;-84
2023/04/26 08:10:09;;;;;;;11.43;4.53;;;10.50;88.50;;;;;;5012351;28;20478;-84
2023/04/26 08:12:40;;;;;;;13.60;4.63;;;10.50;88.50;;;;;;4995933;28;20431;-83
2023/04/26 08:15:07;;;;;;;7.20;4.60;;;10.50;88.40;;;;;;4996448;28;20438;-83
2023/04/26 08:17:33;;;;;;;6.77;4.10;;;10.50;88.40;;;;;;4996142;28;20430;-83
2023/04/26 08:19:59;;;;;;;8.50;4.30;;;10.50;88.40;;;;;;4995833;28;20926;-83
2023/04/26 08:22:27;;;;;;;7.53;4.30;;;10.50;88.30;;;;;;4995479;28;20456;-84
2023/04/26 08:24:54;;;;;;;8.90;4.27;;;10.60;88.50;;;;;;5012310;28;20516;-83
2023/04/26 08:27:23;;;;;;;7.17;4.10;;;10.60;88.50;;;;;;5011812;28;20748;-83
2023/04/26 08:29:51;;;;;;;6.47;4.67;;;10.60;88.50;;;;;;4996227;28;20552;-83
2023/04/26 08:32:21;;;;;;;10.77;4.00;;;10.60;88.40;;;;;;4980115;28;20503;-83
2023/04/26 08:34:50;;;;;;;4.40;3.20;;;10.60;88.40;;;;;;5011789;28;20861;-83
2023/04/26 08:37:16;;;;;;;6.50;4.10;;;10.60;88.30;;;;;;5012020;28;20407;-84
2023/04/26 08:39:47;;;;;;;7.83;4.63;;;10.60;88.20;;;;;;4995315;28;20927;-84
2023/04/26 08:42:15;;;;;;;4.20;3.77;;;10.60;88.10;;;;;;4995437;28;20457;-83
2023/04/26 08:44:45;;;;;;;5.70;3.97;;;10.70;88.20;;;;;;4996485;28;20427;-83
2023/04/26 08:47:23;;;;;;;4.73;3.47;;;10.70;88.10;;;;;;4995225;28;20471;-83
2023/04/26 08:49:59;;;;;;;6.93;3.80;;;10.70;88.10;;;;;;4995451;28;20549;-83
2023/04/26 08:52:31;;;;;;;5.90;3.53;;;10.70;88.00;;;;;;4979232;28;20417;-83
2023/04/26 08:55:04;;;;;;;4.40;3.50;;;10.70;88.00;;;;;;4980524;28;20487;-85
2023/04/26 08:57:33;;;;;;;7.63;3.87;;;10.70;88.00;;;;;;4975692;28;20449;-83
2023/04/26 09:00:09;;;;;;;5.40;3.70;;;10.70;87.90;;;;;;4991865;28;20454;-84
2023/04/26 09:02:35;;;;;;;8.83;4.43;;;10.70;87.90;;;;;;4975837;28;20420;-83
2023/04/26 09:05:05;;;;;;;6.70;4.50;;;10.70;87.90;;;;;;4959777;28;20431;-83
2023/04/26 09:07:37;;;;;;;5.83;3.77;;;10.80;87.90;;;;;;4991840;28;20459;-84
2023/04/26 09:10:05;;;;;;;7.10;3.60;;;10.80;87.70;;;;;;4959500;28;20482;-83
2023/04/26 09:12:31;;;;;;;7.83;3.70;;;10.80;87.70;;;;;;4975403;28;20456;-83
2023/04/26 09:14:57;;;;;;;5.63;3.67;;;10.80;87.40;;;;;;4991870;28;20410;-82
2023/04/26 09:17:38;;;;;;;10.60;3.80;;;10.80;87.30;;;;;;4991497;28;20757;-83
2023/04/26 09:20:26;;;;;;;8.77;3.97;;;10.80;87.10;;;;;;4991463;28;20438;-83
2023/04/26 09:23:05;;;;;;;6.70;4.03;;;10.90;87.20;;;;;;4991611;28;20420;-83
2023/04/26 09:25:34;;;;;;;6.13;3.60;;;10.90;87.10;;;;;;4970111;28;20593;-83
2023/04/26 09:28:19;;;;;;;4.80;3.40;;;10.90;87.10;;;;;;4995759;28;20395;-83
2023/04/26 09:30:47;;;;;;;5.53;3.50;;;10.90;87.10;;;;;;4962549;28;20888;-83
2023/04/26 09:33:13;;;;;;;6.00;3.30;;;10.90;87.00;;;;;;4994822;28;20432;-83
2023/04/26 09:35:44;;;;;;;6.83;3.10;;;11.00;87.00;;;;;;4963561;28;20438;-83
2023/04/26 09:38:14;;;;;;;5.93;3.50;;;11.00;86.80;;;;;;4994573;28;20526;-83
2023/04/26 09:40:43;;;;;;;6.23;3.10;;;11.00;86.70;;;;;;5011022;28;20415;-84
2023/04/26 09:43:14;;;;;;;5.40;3.10;;;11.00;86.70;;;;;;4994624;28;20753;-83
2023/04/26 09:45:54;;;;;;;4.40;3.13;;;11.00;86.80;;;;;;4978955;28;20426;-84
2023/04/26 09:48:29;;;;;;;5.87;3.20;;;11.00;86.90;;;;;;4978644;28;20607;-83
2023/04/26 09:51:11;;;;;;;7.53;3.47;;;11.00;87.00;;;;;;4962468;28;20461;-83
2023/04/26 09:53:46;;;;;;;4.80;3.20;;;11.10;87.00;;;;;;4978627;28;20441;-83
2023/04/26 09:56:18;;;;;;;5.83;3.40;;;11.10;86.60;;;;;;4962228;28;20455;-83
2023/04/26 09:58:47;;;;;;;6.83;3.33;;;11.10;86.40;;;;;;4978480;28;20498;-83
2023/04/26 10:01:17;;;;;;;3.17;2.83;;;11.10;86.40;;;;;;4978785;28;20766;-83
2023/04/26 10:03:46;;;;;;;3.53;2.63;;;11.20;86.60;;;;;;4978378;28;20537;-84
2023/04/26 10:06:12;;;;;;;3.70;2.60;;;11.10;86.50;;;;;;5010601;28;20420;-84
2023/04/26 10:08:38;;;;;;;6.60;3.17;;;11.20;86.00;;;;;;4977828;28;20811;-83
2023/04/26 10:11:10;;;;;;;3.90;3.10;;;11.20;85.80;;;;;;4962083;28;20439;-83
2023/04/26 10:13:38;;;;;;;6.63;2.70;;;11.20;85.50;;;;;;4978475;28;20423;-83
2023/04/26 10:16:05;;;;;;;7.30;3.43;;;11.30;85.60;;;;;;4994169;28;20512;-83
2023/04/26 10:18:33;;;;;;;3.87;3.50;;;11.30;85.80;;;;;;4962611;28;20516;-83
2023/04/26 10:21:09;;;;;;;6.10;2.93;;;11.30;85.70;;;;;;5010498;28;20809;-83
2023/04/26 10:23:36;;;;;;;6.73;3.00;;;11.30;85.40;;;;;;4994371;28;20438;-85
2023/04/26 10:26:05;;;;;;;5.33;3.07;;;11.30;85.50;;;;;;4978210;28;20445;-84
2023/04/26 10:28:43;;;;;;;5.33;3.13;;;11.30;85.70;;;;;;4978362;28;20483;-84
2023/04/26 10:31:11;;;;;;;6.17;3.50;;;11.40;86.10;;;;;;4994032;28;20491;-83
2023/04/26 10:33:39;;;;;;;5.30;3.33;;;11.40;85.80;;;;;;5010525;28;20434;-84
2023/04/26 10:36:12;;;;;;;4.93;3.30;;;11.40;85.60;;;;;;4994761;28;20417;-84
2023/04/26 10:38:40;;;;;;;5.00;3.13;;;11.40;85.60;;;;;;4994246;28;20439;-85
2023/04/26 10:41:34;;;;;;;4.40;3.00;;;11.40;85.70;;;;;;4993926;28;20536;-85
2023/04/26 10:44:37;;;;;;;5.20;3.23;;;11.50;85.80;;;;;;4978514;28;20424;-84
2023/04/26 10:47:23;;;;;;;4.10;3.00;;;11.50;85.70;;;;;;4995919;28;20458;-84
2023/04/26 10:49:52;;;;;;;5.27;3.07;;;11.50;85.70;;;;;;4981358;28;20543;-85
2023/04/26 10:52:21;;;;;;;3.83;3.20;;;11.50;85.20;;;;;;4965248;28;20723;-85
2023/04/26 10:54:55;;;;;;;5.47;2.90;;;11.50;84.90;;;;;;4997708;28;20433;-84
2023/04/26 10:57:51;;;;;;;7.60;3.03;;;11.60;84.80;;;;;;4982014;28;20404;-85
2023/04/26 11:00:27;;;;;;;4.53;2.90;;;11.60;84.50;;;;;;5013333;28;20549;-85
2023/04/26 11:03:03;;;;;;;6.73;3.63;;;11.60;84.00;;;;;;4997218;28;20791;-85
2023/04/26 11:05:33;;;;;;;5.57;3.40;;;11.60;84.30;;;;;;4981117;28;20451;-85
2023/04/26 11:08:07;;;;;;;3.70;3.13;;;11.60;84.40;;;;;;4997406;28;20497;-84
2023/04/26 11:10:35;;;;;;;7.20;2.73;;;11.60;84.50;;;;;;4997076;28;20458;-86
2023/04/26 11:13:02;;;;;;;6.80;3.10;;;11.70;84.50;;;;;;4994566;28;20751;-85
2023/04/26 11:15:31;;;;;;;4.00;3.20;;;11.70;84.20;;;;;;4989706;28;20465;-86
2023/04/26 11:18:00;;;;;;;5.00;3.30;;;11.70;84.10;;;;;;5009773;28;20445;-85
2023/04/26 11:20:32;;;;;;;5.27;3.37;;;11.70;83.90;;;;;;4977788;28;20737;-86
2023/04/26 11:23:01;;;;;;;5.07;3.27;;;11.70;84.20;;;;;;4977604;28;20830;-85
2023/04/26 11:25:30;;;;;;;3.70;3.40;;;11.70;83.50;;;;;;5008386;28;20483;-85
2023/04/26 11:28:01;;;;;;;4.97;3.30;;;11.80;83.80;;;;;;4996760;28;20486;-83
2023/04/26 11:30:31;;;;;;;6.20;3.30;;;11.70;84.20;;;;;;4981206;28;20466;-83
2023/04/26 11:32:58;;;;;;;8.50;3.40;;;11.80;84.30;;;;;;4964739;28;20446;-84
2023/04/26 11:35:25;;;;;;;3.07;2.77;;;11.80;84.20;;;;;;4996941;28;20512;-83
2023/04/26 11:37:51;;;;;;;5.80;3.00;;;11.80;84.10;;;;;;4980253;28;20914;-83
2023/04/26 11:40:26;;;;;;;4.73;3.50;;;11.80;83.80;;;;;;4997427;28;20476;-84
2023/04/26 11:42:51;;;;;;;6.27;3.90;;;11.90;83.30;;;;;;4980532;28;20812;-83
2023/04/26 11:45:22;;;;;;;5.70;3.30;;;11.90;83.40;;;;;;4970512;28;20434;-84
2023/04/26 11:47:49;;;;;;;4.33;3.20;;;11.90;82.50;;;;;;5016390;28;20416;-84
2023/04/26 11:50:18;;;;;;;3.93;2.97;;;11.90;82.30;;;;;;5015773;28;20820;-82
2023/04/26 11:52:55;;;;;;;4.50;3.47;;;11.90;82.00;;;;;;4999399;28;20908;-83
2023/04/26 11:55:30;;;;;;;5.70;3.50;;;11.90;81.90;;;;;;5016063;28;20411;-84
2023/04/26 11:57:57;;;;;;;5.90;4.20;;;12.00;81.90;;;;;;5009181;28;20441;-84
2023/04/26 12:00:24;;;;;;;4.60;2.70;;;12.00;81.30;;;;;;4979782;28;20869;-84
2023/04/26 12:02:51;;;;;;;5.70;2.90;;;12.00;81.00;;;;;;4996107;28;20465;-86
2023/04/26 12:05:29;;;;;;;6.53;3.57;;;12.00;81.20;;;;;;4980104;28;20411;-85
2023/04/26 12:08:00;;;;;;;5.60;5.00;;;12.00;81.60;;;;;;4980010;28;20419;-85
2023/04/26 12:10:35;;;;;;;3.73;3.00;;;12.00;81.80;;;;;;4996869;28;20459;-84
2023/04/26 12:13:03;;;;;;;7.80;2.90;;;12.00;82.10;;;;;;4996262;28;20427;-87
2023/04/26 12:15:32;;;;;;;8.00;3.87;;;12.10;82.10;;;;;;4996021;28;20444;-87
2023/04/26 12:18:04;;;;;;;3.70;3.10;;;12.10;80.90;;;;;;4979900;28;20414;-86
2023/04/26 12:20:34;;;;;;;7.90;3.37;;;12.00;80.40;;;;;;4996283;28;20429;-87
2023/04/26 12:23:11;;;;;;;3.70;3.07;;;12.10;80.50;;;;;;4989122;28;20423;-87
2023/04/26 12:25:39;;;;;;;4.13;3.33;;;12.10;80.70;;;;;;4999419;28;20411;-85
2023/04/26 12:28:10;;;;;;;4.90;2.87;;;12.10;80.20;;;;;;5009440;28;20452;-84
2023/04/26 12:30:39;;;;;;;3.20;2.90;;;12.10;80.40;;;;;;4979534;28;20424;-85
2023/04/26 12:33:06;;;;;;;6.80;4.13;;;12.10;80.30;;;;;;5003215;28;20536;-85
2023/04/26 12:35:34;;;;;;;5.93;2.70;;;12.20;80.70;;;;;;4999239;28;20781;-85
2023/04/26 12:38:02;;;;;;;6.07;2.40;;;12.20;81.10;;;;;;5015860;28;20475;-84
2023/04/26 12:40:28;;;;;;;7.27;3.40;;;12.20;80.90;;;;;;5014904;28;20793;-85
2023/04/26 12:42:55;;;;;;;3.17;2.60;;;12.20;81.10;;;;;;4999069;28;20424;-86
2023/04/26 12:45:25;;;;;;;3.07;2.70;;;12.20;81.10;;;;;;5014949;28;20465;-85
2023/04/26 12:47:54;;;;;;;4.93;2.97;;;12.30;81.50;;;;;;5014351;28;20516;-85
2023/04/26 12:50:20;;;;;;;5.90;3.33;;;12.30;81.70;;;;;;5015830;28;20456;-85
2023/04/26 12:52:46;;;;;;;4.37;3.33;;;12.30;81.10;;;;;;4998930;28;20772;-85
2023/04/26 12:55:15;;;;;;;4.87;3.20;;;12.30;81.10;;;;;;5030880;28;20768;-84
2023/04/26 12:57:43;;;;;;;6.40;3.20;;;12.40;80.70;;;;;;5014966;28;20458;-84
2023/04/26 13:00:16;;;;;;;3.83;3.00;;;12.40;79.80;;;;;;5014926;28;20426;-83